createdAt,value
2023-02-13T00:00:47.241Z,79.30
2023-02-13T00:03:14.911Z,79.20
2023-02-13T00:05:42.079Z,77.70
2023-02-13T00:08:09.377Z,78.10
2023-02-13T00:10:37.296Z,79.30
2023-02-13T00:13:04.586Z,79.70
2023-02-13T00:15:32.011Z,79.40
2023-02-13T00:17:59.251Z,79.30
2023-02-13T00:20:26.488Z,80.40
2023-02-13T00:22:53.612Z,80.90
2023-02-13T00:25:20.667Z,80.60
2023-02-13T00:27:47.873Z,81.20
2023-02-13T00:30:15.539Z,80.90
2023-02-13T00:32:42.669Z,81.30
2023-02-13T00:35:09.891Z,81.70
2023-02-13T00:37:37.042Z,80.50
2023-02-13T00:40:04.820Z,79.30
2023-02-13T00:42:31.875Z,79.60
2023-02-13T00:44:58.975Z,80.30
2023-02-13T00:47:26.118Z,79.90
2023-02-13T00:49:53.181Z,81.20
2023-02-13T00:52:20.288Z,81.20
2023-02-13T00:54:47.804Z,84.10
2023-02-13T00:57:14.975Z,84.50
2023-02-13T00:59:42.102Z,83.20
2023-02-13T01:02:09.219Z,83.60
2023-02-13T01:04:36.499Z,84.60
2023-02-13T01:07:03.630Z,83.30
2023-02-13T01:09:30.765Z,82.80
2023-02-13T01:11:57.879Z,82.00
2023-02-13T01:14:25.529Z,81.30
2023-02-13T01:16:52.618Z,83.00
2023-02-13T01:19:19.806Z,81.90
2023-02-13T01:21:46.860Z,82.10
2023-02-13T01:24:13.970Z,84.50
2023-02-13T01:26:41.383Z,85.50
2023-02-13T01:29:09.789Z,86.10
2023-02-13T01:31:36.954Z,85.00
2023-02-13T01:34:04.195Z,84.80
2023-02-13T01:36:31.331Z,83.80
2023-02-13T01:38:59.171Z,82.90
2023-02-13T01:41:27.807Z,82.50
2023-02-13T01:43:59.206Z,82.40
2023-02-13T01:46:28.902Z,82.30
2023-02-13T01:49:09.407Z,82.00
2023-02-13T01:51:37.216Z,81.70
2023-02-13T01:54:07.726Z,81.30
2023-02-13T01:56:53.476Z,81.60
2023-02-13T01:59:26.097Z,83.10
2023-02-13T02:01:54.383Z,83.90
2023-02-13T02:04:34.076Z,83.50
2023-02-13T02:07:06.892Z,82.70
2023-02-13T02:09:37.534Z,82.20
2023-02-13T02:12:13.959Z,82.00
2023-02-13T02:14:41.902Z,81.80
2023-02-13T02:17:09.533Z,82.30
2023-02-13T02:19:56.364Z,83.30
2023-02-13T02:22:26.427Z,82.70
2023-02-13T02:25:11.375Z,84.20
2023-02-13T02:27:46.722Z,83.70
2023-02-13T02:30:31.442Z,83.40
2023-02-13T02:33:31.017Z,84.00
2023-02-13T02:36:07.069Z,83.00
2023-02-13T02:38:48.743Z,82.50
2023-02-13T02:41:43.070Z,82.10
2023-02-13T02:44:18.489Z,83.00
2023-02-13T02:47:16.800Z,84.30
2023-02-13T02:50:02.100Z,84.00
2023-02-13T02:52:45.427Z,83.30
2023-02-13T02:55:36.156Z,83.80
2023-02-13T02:58:28.047Z,84.10
2023-02-13T03:01:16.441Z,85.80
2023-02-13T03:04:02.669Z,85.70
2023-02-13T03:06:42.745Z,85.70
2023-02-13T03:09:33.042Z,84.80
2023-02-13T03:12:19.711Z,84.40
2023-02-13T03:14:46.844Z,84.90
2023-02-13T03:17:35.740Z,86.10
2023-02-13T03:20:27.076Z,85.60
2023-02-13T03:23:14.826Z,85.80
2023-02-13T03:25:58.398Z,86.20
2023-02-13T03:28:59.940Z,85.70
2023-02-13T03:32:01.538Z,85.60
2023-02-13T03:34:55.476Z,85.80
2023-02-13T03:37:48.731Z,85.50
2023-02-13T03:41:07.186Z,86.00
2023-02-13T03:43:45.108Z,85.10
2023-02-13T03:46:13.463Z,84.80
2023-02-13T03:49:01.227Z,85.80
2023-02-13T03:51:34.684Z,85.50
2023-02-13T03:54:07.341Z,85.80
2023-02-13T03:56:54.598Z,85.60
2023-02-13T03:59:29.012Z,84.90
2023-02-13T04:02:01.547Z,85.10
2023-02-13T04:04:31.623Z,84.60
2023-02-13T04:07:12.824Z,84.10
2023-02-13T04:09:42.917Z,83.90
2023-02-13T04:12:29.336Z,83.60
2023-02-13T04:15:12.699Z,83.60
2023-02-13T04:17:47.023Z,84.10
2023-02-13T04:20:14.898Z,84.00
2023-02-13T04:22:43.903Z,84.00
2023-02-13T04:25:13.258Z,84.10
2023-02-13T04:27:40.390Z,83.70
2023-02-13T04:30:09.175Z,83.50
2023-02-13T04:32:36.267Z,83.40
2023-02-13T04:35:03.747Z,83.30
2023-02-13T04:37:30.860Z,83.20
2023-02-13T04:39:57.913Z,83.10
2023-02-13T04:42:25.080Z,83.00
2023-02-13T04:44:52.165Z,83.50
2023-02-13T04:47:19.244Z,83.00
2023-02-13T04:49:46.313Z,82.90
2023-02-13T04:52:15.491Z,82.90
2023-02-13T04:54:42.693Z,82.90
2023-02-13T04:57:09.894Z,82.70
2023-02-13T04:59:37.056Z,82.70
2023-02-13T05:02:04.199Z,82.70
2023-02-13T05:04:31.450Z,83.00
2023-02-13T05:06:58.581Z,83.60
2023-02-13T05:09:25.715Z,84.60
2023-02-13T05:11:54.149Z,83.80
2023-02-13T05:14:21.565Z,84.00
2023-02-13T05:16:49.825Z,83.50
2023-02-13T05:19:17.362Z,83.50
2023-02-13T05:22:02.688Z,84.50
2023-02-13T05:24:29.773Z,83.90
2023-02-13T05:26:56.920Z,84.10
2023-02-13T05:29:24.146Z,86.40
2023-02-13T05:31:56.417Z,86.20
2023-02-13T05:34:26.130Z,85.50
2023-02-13T05:36:53.690Z,86.10
2023-02-13T05:39:21.241Z,85.20
2023-02-13T05:41:49.527Z,85.30
2023-02-13T05:44:17.108Z,87.30
2023-02-13T05:46:45.041Z,86.10
2023-02-13T05:49:13.752Z,85.70
2023-02-13T05:51:42.163Z,85.50
2023-02-13T05:54:09.413Z,85.10
2023-02-13T05:56:36.555Z,85.80
2023-02-13T05:59:04.097Z,86.60
2023-02-13T06:01:31.214Z,87.00
2023-02-13T06:04:00.021Z,86.30
2023-02-13T06:06:28.224Z,86.90
2023-02-13T06:08:55.449Z,86.60
2023-02-13T06:11:22.590Z,87.40
2023-02-13T06:13:49.652Z,88.70
2023-02-13T06:16:16.924Z,87.70
2023-02-13T06:18:44.254Z,87.00
2023-02-13T06:21:11.345Z,86.70
2023-02-13T06:23:38.479Z,86.60
2023-02-13T06:26:07.427Z,87.00
2023-02-13T06:28:34.944Z,87.60
2023-02-13T06:31:02.672Z,87.10
2023-02-13T06:33:31.269Z,87.00
2023-02-13T06:35:58.443Z,86.70
2023-02-13T06:38:25.723Z,87.70
2023-02-13T06:40:52.907Z,87.30
2023-02-13T06:43:20.049Z,86.80
2023-02-13T06:45:47.378Z,86.70
2023-02-13T06:48:15.172Z,86.40
2023-02-13T06:50:42.289Z,86.10
2023-02-13T06:53:09.398Z,86.00
2023-02-13T06:55:39.337Z,85.80
2023-02-13T06:58:06.669Z,85.80
2023-02-13T07:00:34.223Z,85.50
2023-02-13T07:03:03.513Z,85.40
2023-02-13T07:05:30.801Z,85.20
2023-02-13T07:07:58.136Z,85.10
2023-02-13T07:10:25.267Z,85.00
2023-02-13T07:13:05.013Z,84.90
2023-02-13T07:15:34.258Z,84.60
2023-02-13T07:18:01.738Z,85.50
2023-02-13T07:20:29.271Z,84.40
2023-02-13T07:23:04.595Z,84.00
2023-02-13T07:25:32.244Z,84.20
2023-02-13T07:28:04.252Z,84.20
2023-02-13T07:30:32.669Z,83.60
2023-02-13T07:33:04.241Z,83.60
2023-02-13T07:35:32.463Z,83.60
2023-02-13T07:38:00.815Z,82.50
2023-02-13T07:40:28.293Z,81.90
2023-02-13T07:42:56.686Z,82.50
2023-02-13T07:45:23.838Z,82.40
2023-02-13T07:47:50.938Z,82.50
2023-02-13T07:50:18.162Z,81.50
2023-02-13T07:52:45.257Z,81.40
2023-02-13T07:55:12.350Z,81.90
2023-02-13T07:57:39.443Z,82.00
2023-02-13T08:00:08.996Z,81.90
2023-02-13T08:02:36.077Z,81.70
2023-02-13T08:05:03.236Z,81.70
2023-02-13T08:07:30.382Z,81.50
2023-02-13T08:10:16.085Z,81.60
2023-02-13T08:12:43.286Z,81.10
2023-02-13T08:15:15.719Z,81.30
2023-02-13T08:17:42.814Z,81.50
2023-02-13T08:20:11.107Z,80.60
2023-02-13T08:22:39.114Z,80.10
2023-02-13T08:25:07.150Z,79.60
2023-02-13T08:27:34.697Z,80.50
2023-02-13T08:30:03.242Z,80.30
2023-02-13T08:32:30.374Z,79.70
2023-02-13T08:34:57.557Z,79.50
2023-02-13T08:37:24.976Z,79.70
2023-02-13T08:39:52.158Z,79.80
2023-02-13T08:42:19.304Z,79.80
2023-02-13T08:44:46.420Z,79.90
2023-02-13T08:47:13.591Z,78.70
2023-02-13T08:49:40.770Z,79.60
2023-02-13T08:52:07.915Z,78.60
2023-02-13T08:54:36.164Z,78.00
2023-02-13T08:57:03.685Z,77.90
2023-02-13T08:59:30.865Z,77.50
2023-02-13T09:01:58.315Z,77.80
2023-02-13T09:04:25.482Z,78.10
2023-02-13T09:06:52.612Z,77.40
2023-02-13T09:09:19.842Z,77.20
2023-02-13T09:11:46.999Z,77.90
2023-02-13T09:14:14.104Z,77.40
2023-02-13T09:16:41.289Z,77.20
2023-02-13T09:19:08.497Z,76.80
2023-02-13T09:21:35.660Z,76.90
2023-02-13T09:24:02.776Z,77.50
2023-02-13T09:26:29.891Z,76.80
2023-02-13T09:28:57.019Z,77.50
2023-02-13T09:31:24.442Z,77.20
2023-02-13T09:33:51.887Z,76.90
2023-02-13T09:36:22.496Z,76.40
2023-02-13T09:38:54.693Z,76.40
2023-02-13T09:41:39.972Z,76.70
2023-02-13T09:44:33.928Z,76.20
2023-02-13T09:47:30.227Z,76.10
2023-02-13T09:50:02.831Z,75.70
2023-02-13T09:52:35.738Z,75.90
2023-02-13T09:55:04.627Z,75.60
2023-02-13T09:57:36.729Z,76.50
2023-02-13T10:00:19.092Z,76.00
2023-02-13T10:02:59.225Z,75.40
2023-02-13T10:05:38.265Z,76.30
2023-02-13T10:08:51.631Z,76.10
2023-02-13T10:11:39.987Z,75.20
2023-02-13T10:14:15.069Z,74.80
2023-02-13T10:16:50.921Z,75.10
2023-02-13T10:19:36.575Z,74.80
2023-02-13T10:22:17.402Z,75.20
2023-02-13T10:24:50.048Z,74.90
2023-02-13T10:27:31.863Z,75.20
2023-02-13T10:30:12.936Z,74.90
2023-02-13T10:32:45.038Z,74.90
2023-02-13T10:35:19.628Z,75.00
2023-02-13T10:37:51.790Z,74.90
2023-02-13T10:40:19.587Z,74.70
2023-02-13T10:42:59.173Z,74.10
2023-02-13T10:45:30.074Z,74.80
2023-02-13T10:48:10.980Z,74.70
2023-02-13T10:50:44.709Z,74.80
2023-02-13T10:53:40.313Z,75.00
2023-02-13T10:56:27.671Z,74.30
2023-02-13T10:59:04.564Z,74.40
2023-02-13T11:01:34.779Z,74.40
2023-02-13T11:04:11.933Z,74.10
2023-02-13T11:06:48.848Z,74.10
2023-02-13T11:09:16.244Z,73.30
2023-02-13T11:11:44.060Z,73.30
2023-02-13T11:14:14.984Z,73.60
2023-02-13T11:16:52.269Z,73.30
2023-02-13T11:19:52.935Z,73.20
2023-02-13T11:22:46.442Z,72.70
2023-02-13T11:25:26.096Z,72.40
2023-02-13T11:28:09.074Z,72.60
2023-02-13T11:30:38.167Z,72.60
2023-02-13T11:33:22.978Z,73.50
2023-02-13T11:35:50.185Z,72.90
2023-02-13T11:38:18.311Z,72.30
2023-02-13T11:40:51.561Z,72.00
2023-02-13T11:43:47.674Z,71.10
2023-02-13T11:46:25.158Z,72.00
2023-02-13T11:49:00.022Z,71.70
2023-02-13T11:51:41.461Z,72.50
2023-02-13T11:54:22.173Z,70.70
2023-02-13T11:57:04.062Z,71.40
2023-02-13T11:59:39.999Z,72.10
2023-02-13T12:02:18.907Z,71.40
2023-02-13T12:04:47.815Z,71.40
2023-02-13T12:07:32.459Z,70.80
2023-02-13T12:10:04.019Z,70.40
2023-02-13T12:12:59.342Z,70.80
2023-02-13T12:15:29.152Z,69.20
2023-02-13T12:18:22.886Z,70.70
2023-02-13T12:21:05.586Z,70.60
2023-02-13T12:23:41.724Z,71.00
2023-02-13T12:26:31.654Z,71.20
2023-02-13T12:29:34.976Z,69.70
2023-02-13T12:32:06.497Z,69.90
2023-02-13T12:34:46.702Z,69.40
2023-02-13T12:37:25.737Z,69.70
2023-02-13T12:40:13.468Z,70.10
2023-02-13T12:43:10.013Z,70.60
2023-02-13T12:45:49.412Z,70.60
2023-02-13T12:48:40.025Z,70.70
2023-02-13T12:51:19.058Z,70.60
2023-02-13T12:54:13.750Z,70.90
2023-02-13T12:57:13.890Z,70.90
2023-02-13T12:59:59.722Z,70.30
2023-02-13T13:02:35.857Z,70.70
2023-02-13T13:05:13.597Z,71.00
2023-02-13T13:08:02.587Z,71.00
2023-02-13T13:10:35.702Z,70.90
2023-02-13T13:13:21.442Z,70.60
2023-02-13T13:16:02.867Z,70.70
2023-02-13T13:18:50.094Z,70.60
2023-02-13T13:21:20.431Z,70.40
2023-02-13T13:24:00.527Z,70.00
2023-02-13T13:26:38.114Z,70.30
2023-02-13T13:29:54.663Z,70.20
2023-02-13T13:32:22.755Z,69.50
2023-02-13T13:34:50.137Z,68.70
2023-02-13T13:37:17.302Z,68.70
2023-02-13T13:40:24.684Z,67.80
2023-02-13T13:42:59.541Z,68.60
2023-02-13T13:46:02.520Z,66.90
2023-02-13T13:48:59.420Z,66.70
2023-02-13T13:51:26.863Z,65.80
2023-02-13T13:54:02.950Z,66.70
2023-02-13T13:56:54.710Z,65.20
2023-02-13T13:59:51.422Z,66.80
2023-02-13T14:02:18.507Z,66.70
2023-02-13T14:05:21.373Z,67.40
2023-02-13T14:07:51.793Z,67.50
2023-02-13T14:10:21.952Z,67.60
2023-02-13T14:13:09.274Z,68.10
2023-02-13T14:15:44.794Z,68.40
2023-02-13T14:18:14.689Z,68.60
2023-02-13T14:20:50.908Z,69.20
2023-02-13T14:23:23.168Z,68.30
2023-02-13T14:25:51.230Z,68.30
2023-02-13T14:28:25.873Z,68.50
2023-02-13T14:31:07.081Z,68.30
2023-02-13T14:33:34.648Z,67.80
2023-02-13T14:36:08.032Z,67.80
2023-02-13T14:38:36.322Z,68.20
2023-02-13T14:41:04.155Z,68.50
2023-02-13T14:43:51.649Z,68.40
2023-02-13T14:46:41.204Z,68.30
2023-02-13T14:49:17.623Z,68.50
2023-02-13T14:51:52.129Z,68.50
2023-02-13T14:54:20.356Z,68.40
2023-02-13T14:56:50.289Z,68.50
2023-02-13T14:59:22.062Z,68.70
2023-02-13T15:02:00.000Z,68.60
2023-02-13T15:04:59.122Z,67.70
2023-02-13T15:07:33.766Z,67.70
2023-02-13T15:10:28.958Z,67.70
2023-02-13T15:13:02.239Z,67.70
2023-02-13T15:15:35.474Z,68.70
2023-02-13T15:18:08.978Z,68.90
2023-02-13T15:20:39.885Z,68.90
2023-02-13T15:23:07.591Z,68.80
2023-02-13T15:25:40.042Z,68.90
2023-02-13T15:28:16.429Z,68.60
2023-02-13T15:30:54.353Z,68.40
2023-02-13T15:33:23.586Z,68.70
2023-02-13T15:36:05.620Z,68.60
2023-02-13T15:38:36.787Z,68.70
2023-02-13T15:41:10.026Z,68.50
2023-02-13T15:43:40.461Z,68.40
2023-02-13T15:46:28.241Z,68.60
2023-02-13T15:48:58.771Z,68.60
2023-02-13T15:51:28.684Z,68.30
2023-02-13T15:54:01.751Z,68.40
2023-02-13T15:56:31.016Z,68.40
2023-02-13T15:58:59.947Z,68.50
2023-02-13T16:01:28.057Z,67.80
2023-02-13T16:04:06.921Z,68.40
2023-02-13T16:06:34.952Z,68.00
2023-02-13T16:09:03.320Z,68.40
2023-02-13T16:11:40.300Z,66.80
2023-02-13T16:14:17.297Z,67.90
2023-02-13T16:16:48.457Z,68.20
2023-02-13T16:19:24.289Z,68.40
2023-02-13T16:21:52.411Z,68.00
2023-02-13T16:24:20.121Z,68.10
2023-02-13T16:26:47.820Z,67.80
2023-02-13T16:29:26.303Z,68.10
2023-02-13T16:32:02.172Z,68.10
2023-02-13T16:34:31.164Z,68.20
2023-02-13T16:36:58.435Z,68.20
2023-02-13T16:39:30.037Z,68.10
2023-02-13T16:41:58.688Z,68.00
2023-02-13T16:44:34.391Z,67.90
2023-02-13T16:47:04.206Z,67.40
2023-02-13T16:49:37.505Z,67.60
2023-02-13T16:52:11.510Z,67.50
2023-02-13T16:54:44.199Z,66.50
2023-02-13T16:57:14.367Z,67.00
2023-02-13T16:59:54.018Z,66.90
2023-02-13T17:02:22.697Z,67.00
2023-02-13T17:05:09.561Z,66.90
2023-02-13T17:07:39.179Z,66.60
2023-02-13T17:10:08.638Z,66.50
2023-02-13T17:12:38.293Z,66.60
2023-02-13T17:15:12.349Z,67.40
2023-02-13T17:17:39.896Z,66.70
2023-02-13T17:20:08.873Z,66.30
2023-02-13T17:22:44.542Z,66.70
2023-02-13T17:25:24.669Z,66.70
2023-02-13T17:27:54.316Z,66.60
2023-02-13T17:30:26.832Z,65.60
2023-02-13T17:32:59.218Z,66.80
2023-02-13T17:35:26.464Z,66.20
2023-02-13T17:37:56.659Z,66.00
2023-02-13T17:40:30.231Z,66.00
2023-02-13T17:43:00.304Z,65.30
2023-02-13T17:45:30.963Z,65.50
2023-02-13T17:47:58.681Z,64.90
2023-02-13T17:50:28.414Z,65.00
2023-02-13T17:53:01.421Z,65.20
2023-02-13T17:55:30.719Z,64.70
2023-02-13T17:57:58.906Z,65.00
2023-02-13T18:00:29.914Z,64.70
2023-02-13T18:02:59.286Z,65.10
2023-02-13T18:05:28.079Z,65.40
2023-02-13T18:07:55.832Z,64.90
2023-02-13T18:10:51.164Z,65.00
2023-02-13T18:13:18.623Z,65.20
2023-02-13T18:15:46.372Z,64.90
2023-02-13T18:18:16.238Z,63.80
2023-02-13T18:20:43.944Z,64.60
2023-02-13T18:23:11.374Z,64.80
2023-02-13T18:25:38.447Z,64.90
2023-02-13T18:28:09.469Z,64.90
2023-02-13T18:30:36.652Z,64.90
2023-02-13T18:33:07.512Z,65.00
2023-02-13T18:35:39.071Z,64.90
2023-02-13T18:38:09.100Z,64.70
2023-02-13T18:40:38.303Z,64.60
2023-02-13T18:43:08.649Z,64.80
2023-02-13T18:45:36.540Z,64.80
2023-02-13T18:48:03.814Z,64.80
2023-02-13T18:50:32.874Z,65.00
2023-02-13T18:53:03.358Z,65.00
2023-02-13T18:55:33.113Z,64.40
2023-02-13T18:58:00.972Z,64.80
2023-02-13T19:00:29.250Z,64.90
2023-02-13T19:03:04.378Z,65.10
2023-02-13T19:05:34.560Z,65.00
2023-02-13T19:08:07.024Z,64.90
2023-02-13T19:10:39.893Z,64.40
2023-02-13T19:13:17.093Z,64.90
2023-02-13T19:15:55.874Z,64.90
2023-02-13T19:18:29.110Z,65.00
2023-02-13T19:21:05.951Z,65.00
2023-02-13T19:23:42.328Z,65.00
2023-02-13T19:26:25.220Z,65.10
2023-02-13T19:29:00.645Z,64.70
2023-02-13T19:31:34.317Z,64.90
2023-02-13T19:34:06.317Z,65.00
2023-02-13T19:36:36.554Z,65.00
2023-02-13T19:39:09.561Z,65.00
2023-02-13T19:41:41.083Z,65.10
2023-02-13T19:44:09.388Z,64.40
2023-02-13T19:46:38.294Z,64.90
2023-02-13T19:49:06.198Z,64.90
2023-02-13T19:51:34.618Z,64.50
2023-02-13T19:54:08.743Z,64.70
2023-02-13T19:56:37.775Z,64.70
2023-02-13T19:59:07.007Z,64.70
2023-02-13T20:01:34.190Z,64.60
2023-02-13T20:04:01.555Z,64.70
2023-02-13T20:06:35.865Z,64.90
2023-02-13T20:09:13.450Z,65.00
2023-02-13T20:11:41.528Z,65.00
2023-02-13T20:14:14.672Z,65.10
2023-02-13T20:16:46.426Z,65.20
2023-02-13T20:19:14.142Z,65.30
2023-02-13T20:21:47.166Z,65.30
2023-02-13T20:24:14.319Z,65.30
2023-02-13T20:26:42.353Z,65.50
2023-02-13T20:29:09.699Z,65.60
2023-02-13T20:31:37.075Z,65.60
2023-02-13T20:34:06.838Z,65.70
2023-02-13T20:36:34.708Z,65.70
2023-02-13T20:39:04.075Z,65.80
2023-02-13T20:41:33.973Z,66.00
2023-02-13T20:44:03.762Z,65.90
2023-02-13T20:46:32.849Z,65.90
2023-02-13T20:49:00.109Z,65.80
2023-02-13T20:51:27.645Z,65.70
2023-02-13T20:53:55.493Z,65.60
2023-02-13T20:56:24.927Z,65.50
2023-02-13T20:58:55.163Z,65.40
2023-02-13T21:01:25.705Z,65.60
2023-02-13T21:03:54.962Z,65.80
2023-02-13T21:06:25.792Z,65.70
2023-02-13T21:08:54.035Z,65.90
2023-02-13T21:11:22.016Z,65.40
2023-02-13T21:13:49.397Z,65.60
2023-02-13T21:16:18.694Z,65.60
2023-02-13T21:18:49.026Z,65.60
2023-02-13T21:21:17.604Z,65.70
2023-02-13T21:23:44.810Z,65.50
2023-02-13T21:26:17.208Z,65.50
2023-02-13T21:28:46.635Z,65.60
2023-02-13T21:31:18.917Z,65.50
2023-02-13T21:33:46.316Z,65.50
2023-02-13T21:36:13.572Z,65.40
2023-02-13T21:38:41.637Z,65.60
2023-02-13T21:41:14.372Z,65.30
2023-02-13T21:43:46.795Z,65.40
2023-02-13T21:46:25.834Z,65.60
2023-02-13T21:48:55.422Z,65.60
2023-02-13T21:51:23.890Z,65.60
2023-02-13T21:53:51.948Z,65.60
2023-02-13T21:56:21.700Z,65.40
2023-02-13T21:58:50.020Z,65.30
2023-02-13T22:01:26.126Z,65.50
2023-02-13T22:03:58.414Z,65.50
2023-02-13T22:06:28.344Z,65.60
2023-02-13T22:09:07.015Z,65.60
2023-02-13T22:11:35.525Z,65.60
2023-02-13T22:14:04.309Z,65.80
2023-02-13T22:16:33.818Z,65.80
2023-02-13T22:19:01.909Z,65.80
2023-02-13T22:21:31.075Z,65.80
2023-02-13T22:23:58.968Z,65.80
2023-02-13T22:26:37.725Z,65.80
2023-02-13T22:29:11.367Z,65.90
2023-02-13T22:31:38.708Z,65.90
2023-02-13T22:34:06.787Z,65.90
2023-02-13T22:36:38.526Z,65.80
2023-02-13T22:39:06.669Z,65.80
2023-02-13T22:41:34.070Z,65.60
2023-02-13T22:44:01.346Z,65.80
2023-02-13T22:46:33.326Z,65.80
2023-02-13T22:49:00.918Z,65.80
2023-02-13T22:51:33.296Z,65.80
2023-02-13T22:54:01.168Z,65.80
2023-02-13T22:56:30.419Z,65.90
2023-02-13T22:58:58.573Z,66.00
2023-02-13T23:01:27.297Z,65.80
2023-02-13T23:03:55.360Z,66.00
2023-02-13T23:06:23.646Z,65.80
2023-02-13T23:08:52.797Z,65.80
2023-02-13T23:11:43.461Z,65.80
2023-02-13T23:14:11.439Z,65.80
2023-02-13T23:16:58.555Z,65.70
2023-02-13T23:19:27.612Z,65.80
2023-02-13T23:21:54.962Z,65.80
2023-02-13T23:24:22.162Z,65.70
2023-02-13T23:26:49.324Z,65.70
2023-02-13T23:29:16.568Z,65.70
2023-02-13T23:31:43.778Z,65.80
2023-02-13T23:34:11.023Z,65.90
2023-02-13T23:36:38.133Z,66.00
2023-02-13T23:39:05.385Z,66.00
2023-02-13T23:41:32.446Z,66.10
2023-02-13T23:43:59.575Z,66.00
2023-02-13T23:46:26.871Z,66.50
2023-02-13T23:48:53.982Z,66.40
2023-02-13T23:51:23.119Z,66.60
2023-02-13T23:53:56.179Z,66.50
2023-02-13T23:56:25.057Z,66.60
2023-02-13T23:58:52.829Z,66.60
